Time;durP1;ratioP1;P1;durP2;ratioP2;P2;SDS_P1;SDS_P2;PMS_P1;PMS_P2;Temp;Humidity;BMP_temperature;BMP_pressure;BME280_temperature;BME280_humidity;BME280_pressure;Samples;Min_cycle;Max_cycle;Signal;HPM_P1;HPM_P2
2023/08/05 00:00:44;;;;;;;6.18;3.70;;;;;;;17.23;85.55;101605.06;5056816;28;20036;-61
2023/08/05 00:03:10;;;;;;;11.65;4.50;;;;;;;17.26;85.20;101608.59;5056688;28;20546;-60
2023/08/05 00:05:37;;;;;;;7.00;3.60;;;;;;;17.26;85.54;101597.91;5056898;28;20025;-61
2023/08/05 00:08:03;;;;;;;8.07;3.85;;;;;;;17.22;86.02;101597.94;5055546;28;20091;-61
2023/08/05 00:10:29;;;;;;;7.75;4.20;;;;;;;17.21;85.81;101596.13;5056579;28;20033;-61
2023/08/05 00:12:54;;;;;;;7.70;3.83;;;;;;;17.27;85.93;101593.47;5056585;28;20032;-61
2023/08/05 00:15:19;;;;;;;7.00;4.10;;;;;;;17.26;86.07;101597.03;5056415;28;20577;-60
2023/08/05 00:17:45;;;;;;;8.65;4.00;;;;;;;17.28;86.04;101585.44;5056370;28;20025;-60
2023/08/05 00:20:12;;;;;;;11.52;4.20;;;;;;;17.34;86.10;101584.50;5056300;28;20466;-61
2023/08/05 00:22:37;;;;;;;9.05;4.10;;;;;;;17.29;86.05;101586.31;5056675;28;20104;-61
2023/08/05 00:25:03;;;;;;;6.72;3.85;;;;;;;17.35;86.27;101590.75;5056372;28;20108;-61
2023/08/05 00:27:28;;;;;;;9.27;3.90;;;;;;;17.33;86.14;101584.50;5056281;28;20017;-61
2023/08/05 00:29:54;;;;;;;6.32;3.83;;;;;;;17.42;86.30;101584.47;5056203;28;20032;-61
2023/08/05 00:32:19;;;;;;;8.98;4.30;;;;;;;17.39;86.52;101576.47;5056187;28;20542;-60
2023/08/05 00:34:45;;;;;;;8.57;4.07;;;;;;;17.32;86.74;101580.97;5056105;28;20021;-60
2023/08/05 00:37:10;;;;;;;7.95;4.03;;;;;;;17.30;86.93;101581.84;5056399;28;20109;-60
2023/08/05 00:39:36;;;;;;;9.95;5.05;;;;;;;17.32;86.64;101580.97;5056053;28;20048;-60
2023/08/05 00:42:01;;;;;;;7.28;4.28;;;;;;;17.35;86.25;101572.94;5056061;28;20032;-60
2023/08/05 00:44:27;;;;;;;6.82;4.20;;;;;;;17.38;86.39;101569.34;5038048;28;20063;-61
2023/08/05 00:46:52;;;;;;;8.88;4.40;;;;;;;17.38;86.23;101572.00;5055794;28;20379;-61
2023/08/05 00:49:18;;;;;;;8.07;4.00;;;;;;;17.35;86.33;101564.91;5055824;28;20083;-60
2023/08/05 00:51:44;;;;;;;7.05;4.40;;;;;;;17.35;86.63;101561.38;5055829;28;20081;-60
2023/08/05 00:54:10;;;;;;;9.95;3.92;;;;;;;17.38;86.51;101559.53;5056044;28;20037;-61
2023/08/05 00:56:36;;;;;;;9.45;4.07;;;;;;;17.31;86.94;101555.16;5055772;28;20036;-60
2023/08/05 00:59:02;;;;;;;9.07;4.10;;;;;;;17.17;87.79;101557.91;5055701;28;20032;-60
2023/08/05 01:01:27;;;;;;;8.95;4.40;;;;;;;16.98;88.96;101551.75;5054509;28;20021;-60
2023/08/05 01:03:52;;;;;;;5.70;4.10;;;;;;;16.87;89.78;101548.22;5055495;28;20546;-60
2023/08/05 01:06:19;;;;;;;10.20;4.55;;;;;;;16.80;90.12;101557.16;5055429;28;20025;-60
2023/08/05 01:08:45;;;;;;;7.57;4.30;;;;;;;16.66;90.79;101546.50;5055355;28;20025;-60
2023/08/05 01:11:11;;;;;;;9.18;4.20;;;;;;;16.65;91.11;101550.03;5055679;28;20382;-60
2023/08/05 01:13:39;;;;;;;8.02;4.57;;;;;;;16.56;91.31;101547.41;5055672;28;20170;-60
2023/08/05 01:16:05;;;;;;;6.70;4.55;;;;;;;16.52;91.29;101542.97;5055475;28;20032;-60
2023/08/05 01:18:32;;;;;;;7.30;4.50;;;;;;;16.47;91.92;101542.09;5055261;28;20032;-60
2023/08/05 01:21:02;;;;;;;9.70;4.38;;;;;;;16.44;92.17;101532.31;5055225;28;20083;-59
2023/08/05 01:23:36;;;;;;;9.75;4.30;;;;;;;16.40;92.26;101535.91;5055558;28;20021;-59
2023/08/05 01:26:04;;;;;;;10.60;4.60;;;;;;;16.41;92.38;101531.44;5054185;28;20061;-61
2023/08/05 01:28:30;;;;;;;6.45;4.72;;;;;;;16.40;91.96;101537.66;5055195;28;20029;-61
2023/08/05 01:30:58;;;;;;;9.88;4.53;;;;;;;16.36;91.90;101523.47;5055110;28;20066;-61
2023/08/05 01:33:24;;;;;;;8.75;4.40;;;;;;;16.46;91.50;101532.31;5055097;28;20031;-60
2023/08/05 01:35:50;;;;;;;6.47;4.50;;;;;;;16.50;91.64;101532.31;5054943;28;20116;-60
2023/08/05 01:38:16;;;;;;;9.10;4.80;;;;;;;16.42;91.61;101531.44;5055052;28;20406;-60
2023/08/05 01:40:41;;;;;;;6.47;4.50;;;;;;;16.41;91.76;101539.44;5054856;28;20021;-60
2023/08/05 01:43:07;;;;;;;9.35;4.85;;;;;;;16.38;91.63;101536.78;5055035;28;20032;-60
2023/08/05 01:45:33;;;;;;;10.48;4.72;;;;;;;16.38;91.78;101529.66;5054881;28;20441;-60
2023/08/05 01:47:58;;;;;;;5.68;4.22;;;;;;;16.38;91.41;101537.66;5053492;28;20506;-60
2023/08/05 01:50:24;;;;;;;11.52;4.60;;;;;;;16.38;91.22;101532.34;5054704;28;20078;-60
2023/08/05 01:52:51;;;;;;;8.77;4.70;;;;;;;16.37;91.27;101529.69;5054815;28;20029;-61
2023/08/05 01:55:16;;;;;;;7.80;4.70;;;;;;;16.32;91.39;101536.81;5054596;28;20545;-60
2023/08/05 01:57:41;;;;;;;9.68;5.10;;;;;;;16.25;91.72;101530.59;5054596;28;20108;-60
2023/08/05 02:00:07;;;;;;;7.80;5.00;;;;;;;16.21;91.91;101528.81;5054611;28;20036;-60
2023/08/05 02:02:33;;;;;;;8.07;4.82;;;;;;;16.17;91.79;101521.72;5054486;28;20106;-60
2023/08/05 02:04:58;;;;;;;11.23;4.70;;;;;;;16.15;92.07;101527.06;5054340;28;20029;-60
2023/08/05 02:07:23;;;;;;;7.88;4.78;;;;;;;16.10;92.49;101530.59;5054521;28;20025;-60
2023/08/05 02:09:49;;;;;;;12.15;4.80;;;;;;;16.05;93.19;101529.72;5054423;28;20029;-60
2023/08/05 02:12:14;;;;;;;8.45;5.13;;;;;;;15.98;93.69;101528.84;5053899;28;20051;-60
2023/08/05 02:14:39;;;;;;;9.05;4.90;;;;;;;15.94;94.18;101537.72;5054194;28;20518;-60
2023/08/05 02:17:05;;;;;;;8.85;5.18;;;;;;;15.90;94.65;101539.50;5054175;28;20021;-60
2023/08/05 02:19:30;;;;;;;8.63;5.60;;;;;;;15.94;95.02;101535.06;5054029;28;20025;-60
2023/08/05 02:21:56;;;;;;;8.75;4.88;;;;;;;15.95;94.95;101529.72;5036146;28;20032;-60
2023/08/05 02:24:21;;;;;;;14.15;5.50;;;;;;;15.98;94.74;101528.84;5054221;28;20029;-60
2023/08/05 02:26:47;;;;;;;11.35;5.35;;;;;;;15.98;94.70;101526.19;5052889;28;20056;-60
2023/08/05 02:29:12;;;;;;;9.80;4.93;;;;;;;15.98;94.64;101531.50;5054136;28;20047;-60
2023/08/05 02:31:37;;;;;;;10.13;5.22;;;;;;;15.98;94.49;101526.19;5054017;28;20410;-60
2023/08/05 02:34:03;;;;;;;11.13;5.50;;;;;;;15.93;94.27;101526.19;5053829;28;20028;-60
2023/08/05 02:36:28;;;;;;;11.55;5.50;;;;;;;15.92;94.35;101516.38;5035998;28;20029;-60
2023/08/05 02:38:53;;;;;;;11.30;5.45;;;;;;;15.90;94.75;101515.53;5053782;28;20487;-61
2023/08/05 02:41:19;;;;;;;7.28;5.57;;;;;;;15.80;94.93;101519.06;5053784;28;20036;-60
2023/08/05 02:43:44;;;;;;;9.88;5.43;;;;;;;15.71;95.31;101513.72;5053587;28;20116;-59
2023/08/05 02:46:09;;;;;;;10.93;5.90;;;;;;;15.65;95.69;101508.41;5053834;28;20441;-60
2023/08/05 02:48:35;;;;;;;8.65;5.47;;;;;;;15.62;95.74;101511.91;5053523;28;20136;-61
2023/08/05 02:51:00;;;;;;;10.65;6.00;;;;;;;15.57;96.25;101508.38;5053463;28;20474;-60
2023/08/05 02:53:26;;;;;;;10.88;5.75;;;;;;;15.62;96.25;101500.38;5053618;28;20422;-60
2023/08/05 02:55:51;;;;;;;9.85;5.88;;;;;;;15.56;96.04;101513.69;5053659;28;20017;-60
2023/08/05 02:58:17;;;;;;;13.60;6.18;;;;;;;15.53;95.93;101504.81;5035784;28;20021;-59
2023/08/05 03:00:43;;;;;;;8.98;6.18;;;;;;;15.54;95.54;101505.69;5053429;28;20025;-60
2023/08/05 03:03:10;;;;;;;12.05;6.20;;;;;;;15.59;95.99;101500.34;5053673;28;20025;-60
2023/08/05 03:05:35;;;;;;;8.95;6.13;;;;;;;15.63;95.18;101499.47;5053332;28;20029;-59
2023/08/05 03:08:01;;;;;;;9.43;6.32;;;;;;;15.63;94.96;101502.13;5053617;28;20036;-59
2023/08/05 03:10:26;;;;;;;7.85;5.60;;;;;;;15.68;95.12;101503.09;5035721;28;20063;-59
2023/08/05 03:12:52;;;;;;;10.48;5.75;;;;;;;15.72;95.02;101489.75;5053160;28;20025;-60
2023/08/05 03:15:17;;;;;;;15.05;6.20;;;;;;;15.60;95.00;101479.06;5053220;28;20025;-60
2023/08/05 03:17:42;;;;;;;11.85;5.70;;;;;;;15.62;95.25;101482.59;5053170;28;20391;-60
2023/08/05 03:20:26;;;;;;;8.70;6.00;;;;;;;15.62;95.58;101485.28;5053010;28;20047;-60
2023/08/05 03:22:53;;;;;;;9.85;6.15;;;;;;;15.58;95.09;101486.16;5053038;28;20033;-60
2023/08/05 03:25:19;;;;;;;13.43;6.07;;;;;;;15.59;95.06;101479.06;5052676;28;20435;-59
2023/08/05 03:27:44;;;;;;;11.75;6.10;;;;;;;15.54;95.00;101484.38;5053092;28;20036;-60
2023/08/05 03:30:10;;;;;;;11.88;6.68;;;;;;;15.50;95.38;101482.59;5053147;28;20025;-60
2023/08/05 03:32:35;;;;;;;10.88;6.97;;;;;;;15.50;95.61;101477.28;5052976;28;20120;-59
2023/08/05 03:35:00;;;;;;;18.02;6.50;;;;;;;15.60;95.44;101480.84;5052874;28;20108;-60
2023/08/05 03:37:27;;;;;;;9.98;6.03;;;;;;;15.69;94.89;101476.44;5053065;28;20025;-59
2023/08/05 03:39:52;;;;;;;10.50;5.90;;;;;;;15.74;94.39;101471.09;5052773;28;20542;-60
2023/08/05 03:42:17;;;;;;;12.90;6.15;;;;;;;15.74;93.67;101461.31;5035031;28;20109;-60
2023/08/05 03:44:43;;;;;;;12.10;6.75;;;;;;;15.70;93.78;101456.88;5034895;28;20049;-60
2023/08/05 03:47:08;;;;;;;12.95;6.88;;;;;;;15.65;93.69;101460.44;5034726;28;20433;-60
2023/08/05 03:49:34;;;;;;;9.52;6.05;;;;;;;15.64;93.93;101448.91;5052822;28;20133;-60
2023/08/05 03:51:59;;;;;;;8.20;6.13;;;;;;;15.68;93.87;101447.13;5052875;28;20025;-61
2023/08/05 03:54:25;;;;;;;8.73;6.22;;;;;;;15.72;93.72;101443.59;5052743;28;20454;-60
2023/08/05 03:56:51;;;;;;;10.07;6.57;;;;;;;15.75;93.03;101444.44;5053111;28;20028;-60
2023/08/05 03:59:16;;;;;;;12.75;6.38;;;;;;;15.78;92.89;101443.56;5053262;28;20470;-59
2023/08/05 04:01:43;;;;;;;8.73;6.32;;;;;;;15.82;92.43;101439.13;5052719;28;20482;-60
2023/08/05 04:04:08;;;;;;;10.75;6.28;;;;;;;15.66;92.70;101436.47;5034989;28;20041;-60
2023/08/05 04:06:34;;;;;;;9.77;6.38;;;;;;;15.57;93.54;101436.44;5052544;28;20029;-60
2023/08/05 04:08:59;;;;;;;9.40;6.43;;;;;;;15.45;94.17;101425.78;5034372;28;20029;-60
2023/08/05 04:11:26;;;;;;;8.57;6.20;;;;;;;15.37;94.92;101424.88;5051268;28;20032;-61
2023/08/05 04:13:52;;;;;;;13.55;7.03;;;;;;;15.27;95.50;101429.34;5034414;28;20032;-61
2023/08/05 04:16:18;;;;;;;9.68;7.30;;;;;;;15.24;96.22;101432.88;5034225;28;20494;-61
2023/08/05 04:18:46;;;;;;;9.80;7.07;;;;;;;15.26;96.59;101425.78;5052275;28;20029;-61
2023/08/05 04:21:11;;;;;;;16.50;7.25;;;;;;;15.30;96.35;101431.13;5052293;28;20040;-61
2023/08/05 04:23:37;;;;;;;10.38;7.47;;;;;;;15.40;95.90;101435.56;5052455;28;20356;-61
2023/08/05 04:26:05;;;;;;;12.93;7.63;;;;;;;15.40;95.87;101430.22;5051970;28;20021;-61
2023/08/05 04:28:30;;;;;;;12.73;8.27;;;;;;;15.52;96.33;101412.47;5052033;28;20051;-60
2023/08/05 04:30:57;;;;;;;11.43;7.75;;;;;;;15.54;95.62;101407.13;5052023;28;20386;-61
2023/08/05 04:33:25;;;;;;;10.38;7.07;;;;;;;15.66;95.28;101415.16;5052348;28;20036;-61
2023/08/05 04:35:51;;;;;;;10.90;7.22;;;;;;;15.64;95.19;101402.72;5054639;28;20104;-61
2023/08/05 04:38:16;;;;;;;11.00;7.00;;;;;;;15.71;94.93;101391.16;5055800;28;20534;-61
2023/08/05 04:40:42;;;;;;;11.50;7.00;;;;;;;15.69;94.87;101395.63;5055828;28;20120;-60
2023/08/05 04:43:08;;;;;;;9.52;7.25;;;;;;;15.75;94.75;101391.16;5055802;28;20113;-60
2023/08/05 04:45:34;;;;;;;9.48;7.00;;;;;;;15.76;94.48;101384.06;5055868;28;20031;-61
2023/08/05 04:48:00;;;;;;;13.25;7.43;;;;;;;15.71;94.73;101384.06;5054043;28;20060;-61
2023/08/05 04:50:25;;;;;;;15.02;7.72;;;;;;;15.53;95.46;101384.94;5055866;28;20491;-61
2023/08/05 04:52:51;;;;;;;10.32;7.50;;;;;;;15.41;96.43;101384.06;5055577;28;20021;-61
2023/08/05 04:55:16;;;;;;;12.93;7.85;;;;;;;15.28;96.95;101383.16;5055464;28;20033;-61
2023/08/05 04:57:43;;;;;;;11.45;7.78;;;;;;;15.35;97.32;101384.06;5055328;28;20048;-61
2023/08/05 05:00:09;;;;;;;9.77;7.07;;;;;;;15.40;97.43;101383.16;5055311;28;20055;-61
2023/08/05 05:02:34;;;;;;;11.80;7.60;;;;;;;15.53;97.05;101381.38;5055431;28;20028;-61
2023/08/05 05:05:02;;;;;;;10.25;7.40;;;;;;;15.63;96.51;101391.16;5055197;28;20029;-60
2023/08/05 05:07:27;;;;;;;8.77;7.35;;;;;;;15.55;96.72;101394.72;5055349;28;20036;-61
2023/08/05 05:09:53;;;;;;;12.20;7.32;;;;;;;15.69;96.98;101387.63;5055436;28;20034;-60
2023/08/05 05:12:18;;;;;;;11.40;8.38;;;;;;;15.63;96.45;101388.50;5054065;28;20542;-61
2023/08/05 05:14:44;;;;;;;12.30;8.57;;;;;;;15.54;96.97;101391.16;5055005;28;20036;-61
2023/08/05 05:17:10;;;;;;;12.90;8.18;;;;;;;15.47;97.69;101390.28;5037183;28;20024;-60
2023/08/05 05:19:35;;;;;;;12.30;8.25;;;;;;;15.43;97.97;101379.63;5054812;28;20498;-61
2023/08/05 05:22:00;;;;;;;15.00;8.73;;;;;;;15.40;98.45;101379.63;5055000;28;20025;-62
2023/08/05 05:24:29;;;;;;;13.90;8.73;;;;;;;15.41;98.63;101376.94;5054952;28;20033;-61
2023/08/05 05:26:57;;;;;;;12.45;8.85;;;;;;;15.33;98.86;101375.19;5053580;28;20036;-61
2023/08/05 05:29:22;;;;;;;12.10;8.55;;;;;;;15.32;100.00;101378.75;5053590;28;20482;-61
2023/08/05 05:31:47;;;;;;;12.52;8.48;;;;;;;15.32;99.86;101379.63;5054722;28;20025;-61
2023/08/05 05:34:13;;;;;;;10.88;7.55;;;;;;;15.44;100.00;101376.06;5054646;28;20021;-61
2023/08/05 05:36:38;;;;;;;12.15;9.30;;;;;;;15.42;99.81;101362.78;5036706;28;20119;-61
2023/08/05 05:39:04;;;;;;;14.07;9.00;;;;;;;15.40;100.00;101366.31;5053415;28;20021;-61
2023/08/05 05:41:29;;;;;;;13.98;9.07;;;;;;;15.43;100.00;101363.66;5054760;28;20374;-60
2023/08/05 05:43:56;;;;;;;14.52;8.57;;;;;;;15.44;100.00;101366.31;5054415;28;20055;-61
2023/08/05 05:46:21;;;;;;;10.55;8.30;;;;;;;15.52;100.00;101369.84;5053906;28;20086;-60
2023/08/05 05:48:47;;;;;;;13.55;9.25;;;;;;;15.61;100.00;101370.72;5053133;28;20048;-60
2023/08/05 05:51:12;;;;;;;12.43;8.63;;;;;;;15.58;100.00;101374.28;5054310;28;20437;-61
2023/08/05 05:53:38;;;;;;;15.45;9.32;;;;;;;15.57;100.00;101363.63;5054438;28;20111;-61
2023/08/05 05:56:04;;;;;;;11.57;8.35;;;;;;;15.60;100.00;101363.63;5054374;28;20433;-60
2023/08/05 05:58:33;;;;;;;12.75;9.05;;;;;;;15.66;100.00;101359.19;5054277;28;20032;-61
2023/08/05 06:01:00;;;;;;;12.50;9.27;;;;;;;15.87;100.00;101365.38;5054264;28;20497;-61
2023/08/05 06:03:25;;;;;;;12.70;9.10;;;;;;;15.99;99.43;101360.91;5036386;28;20033;-61
2023/08/05 06:05:51;;;;;;;11.82;8.75;;;;;;;16.20;98.24;101359.94;5054241;28;20382;-61
2023/08/05 06:08:16;;;;;;;17.50;9.05;;;;;;;16.31;97.21;101356.31;5054206;28;20021;-61
2023/08/05 06:10:42;;;;;;;12.93;9.10;;;;;;;16.36;96.93;101363.44;5054214;28;20028;-61
2023/08/05 06:13:08;;;;;;;11.05;8.90;;;;;;;16.43;97.56;101362.47;5053670;28;20026;-60
2023/08/05 06:15:33;;;;;;;14.70;8.80;;;;;;;16.50;98.00;101350.91;5054257;28;20033;-61
2023/08/05 06:17:58;;;;;;;14.68;9.60;;;;;;;16.55;97.19;101349.97;5053987;28;20546;-61
2023/08/05 06:20:24;;;;;;;13.18;9.13;;;;;;;16.58;97.57;101344.63;5053822;28;20025;-61
2023/08/05 06:22:50;;;;;;;14.48;9.43;;;;;;;16.61;97.75;101350.81;5054055;28;20029;-61
2023/08/05 06:25:15;;;;;;;14.50;8.73;;;;;;;16.58;97.88;101347.31;5053831;28;20112;-60
2023/08/05 06:27:40;;;;;;;14.40;8.90;;;;;;;16.69;98.86;101340.09;5052760;28;20052;-60
2023/08/05 06:30:06;;;;;;;17.08;8.75;;;;;;;16.81;98.10;101345.41;5053854;28;20485;-60
2023/08/05 06:32:32;;;;;;;12.27;8.80;;;;;;;16.91;97.84;101341.75;5053933;28;20068;-60
2023/08/05 06:34:57;;;;;;;14.25;8.90;;;;;;;16.98;97.17;101338.16;5053331;28;20037;-61
2023/08/05 06:37:22;;;;;;;12.90;8.07;;;;;;;17.00;96.04;101340.78;5035830;28;20043;-60
2023/08/05 06:39:48;;;;;;;12.90;8.52;;;;;;;17.02;96.01;101334.56;5053645;28;20032;-61
2023/08/05 06:42:13;;;;;;;11.65;8.40;;;;;;;17.04;95.92;101337.22;5053577;28;20036;-60
2023/08/05 06:44:41;;;;;;;12.85;8.18;;;;;;;17.12;94.52;101339.81;5053447;28;20056;-60
2023/08/05 06:47:07;;;;;;;15.35;7.88;;;;;;;17.17;94.52;101338.00;5053673;28;20350;-61
2023/08/05 06:49:32;;;;;;;10.85;7.50;;;;;;;17.33;94.03;101342.31;5053163;28;20139;-60
2023/08/05 06:51:57;;;;;;;10.88;7.93;;;;;;;17.43;93.01;101338.66;5053485;28;20032;-60
2023/08/05 06:54:23;;;;;;;15.52;7.45;;;;;;;17.43;92.45;101338.66;5053174;28;20506;-61
2023/08/05 06:56:50;;;;;;;13.13;6.97;;;;;;;17.35;90.87;101335.19;5053260;28;20035;-61
2023/08/05 06:59:16;;;;;;;8.73;6.05;;;;;;;17.27;91.30;101321.00;5053245;28;20025;-60
2023/08/05 07:01:41;;;;;;;10.60;6.28;;;;;;;17.23;91.14;101321.94;5052827;28;20079;-61
2023/08/05 07:04:07;;;;;;;12.00;6.70;;;;;;;17.26;90.97;101321.91;5052993;28;20031;-61
2023/08/05 07:06:32;;;;;;;10.00;6.53;;;;;;;17.38;91.25;101327.09;5051792;28;20025;-61
2023/08/05 07:08:57;;;;;;;11.57;6.60;;;;;;;17.61;89.11;101315.34;5053241;28;20082;-61
2023/08/05 07:11:23;;;;;;;11.38;6.43;;;;;;;17.79;88.68;101312.47;5035110;28;20190;-61
2023/08/05 07:13:48;;;;;;;12.32;5.90;;;;;;;17.87;86.74;101307.94;5052746;28;20021;-61
2023/08/05 07:16:14;;;;;;;8.60;5.75;;;;;;;17.91;86.68;101303.44;5051654;28;20071;-61
2023/08/05 07:18:39;;;;;;;9.10;5.50;;;;;;;17.96;86.57;101315.84;5052847;28;20025;-61
2023/08/05 07:21:04;;;;;;;8.32;5.35;;;;;;;17.98;85.94;101305.09;5034933;28;20499;-60
2023/08/05 07:23:30;;;;;;;9.27;5.22;;;;;;;18.14;87.39;101304.00;5035087;28;20036;-61
2023/08/05 07:25:59;;;;;;;8.43;5.18;;;;;;;18.30;85.43;101309.16;5052943;28;20025;-61
2023/08/05 07:28:26;;;;;;;8.50;5.40;;;;;;;18.39;85.51;101301.00;5052805;28;20539;-60
2023/08/05 07:31:02;;;;;;;9.15;5.03;;;;;;;18.42;83.92;101304.53;5052917;28;20033;-61
2023/08/05 07:33:28;;;;;;;6.20;4.30;;;;;;;18.45;82.71;101301.78;5052553;28;20039;-61
2023/08/05 07:35:53;;;;;;;7.57;4.25;;;;;;;18.67;84.45;101305.06;5052538;28;20054;-60
2023/08/05 07:38:23;;;;;;;8.43;4.95;;;;;;;18.74;82.19;101311.22;5052764;28;20029;-61
2023/08/05 07:40:48;;;;;;;8.05;4.97;;;;;;;18.80;83.12;101300.44;5052266;28;20033;-60
2023/08/05 07:43:15;;;;;;;7.00;3.85;;;;;;;18.94;81.16;101305.56;5052429;28;20033;-60
2023/08/05 07:45:40;;;;;;;7.70;4.10;;;;;;;18.92;80.25;101297.53;5052673;28;20036;-61
2023/08/05 07:48:08;;;;;;;6.93;4.05;;;;;;;18.92;79.29;101296.66;5052145;28;20045;-61
2023/08/05 07:50:34;;;;;;;5.97;4.20;;;;;;;18.85;79.50;101300.34;5052651;28;20045;-61
2023/08/05 07:52:59;;;;;;;8.20;4.35;;;;;;;18.82;79.78;101285.22;5052418;28;20045;-61
2023/08/05 07:55:29;;;;;;;6.90;4.10;;;;;;;18.92;78.64;101288.63;5034448;28;20390;-61
2023/08/05 07:57:55;;;;;;;8.25;4.30;;;;;;;18.95;79.25;101288.56;5052821;28;20029;-60
2023/08/05 08:00:20;;;;;;;7.25;4.43;;;;;;;19.05;78.90;101284.81;5052243;28;20106;-61
2023/08/05 08:02:46;;;;;;;5.57;4.05;;;;;;;19.17;77.97;101271.22;5052679;28;20029;-61
2023/08/05 08:05:13;;;;;;;7.22;4.05;;;;;;;19.45;78.57;101273.41;5051448;28;20044;-62
2023/08/05 08:07:46;;;;;;;8.77;4.20;;;;;;;19.41;77.05;101266.31;5052508;28;20076;-61
2023/08/05 08:10:12;;;;;;;6.85;4.30;;;;;;;19.52;76.79;101261.63;5054264;28;20037;-61
2023/08/05 08:12:37;;;;;;;10.35;4.13;;;;;;;19.57;75.06;101257.09;5055072;28;20474;-60
2023/08/05 08:15:03;;;;;;;6.10;3.92;;;;;;;19.58;77.05;101261.53;5056245;28;20371;-60
2023/08/05 08:17:28;;;;;;;6.40;4.40;;;;;;;19.69;76.21;101256.84;5054946;28;20041;-61
2023/08/05 08:19:54;;;;;;;6.68;4.10;;;;;;;19.79;74.72;101254.00;5056084;28;20021;-61
2023/08/05 08:22:19;;;;;;;6.43;4.25;;;;;;;19.88;75.23;101238.59;5056261;28;20025;-61
2023/08/05 08:24:45;;;;;;;7.85;4.20;;;;;;;19.84;74.22;101239.56;5056232;28;20031;-60
2023/08/05 08:27:10;;;;;;;6.78;4.10;;;;;;;19.76;74.90;101239.72;5056061;28;20527;-61
2023/08/05 08:29:35;;;;;;;6.40;4.47;;;;;;;19.73;74.62;101233.53;5055990;28;20406;-60
2023/08/05 08:32:01;;;;;;;8.55;4.03;;;;;;;19.65;74.99;101231.00;5055015;28;20029;-61
2023/08/05 08:34:26;;;;;;;8.32;4.10;;;;;;;19.62;74.28;101231.09;5056022;28;20470;-61
2023/08/05 08:36:51;;;;;;;6.70;3.75;;;;;;;19.61;72.62;101228.41;5055891;28;20079;-61
2023/08/05 08:39:17;;;;;;;6.70;3.70;;;;;;;19.71;73.45;101228.22;5055713;28;20060;-60
2023/08/05 08:41:45;;;;;;;5.20;3.70;;;;;;;19.73;72.67;101226.38;5055769;28;20055;-60
2023/08/05 08:44:11;;;;;;;7.03;3.45;;;;;;;19.77;73.60;101217.34;5055498;28;20039;-61
2023/08/05 08:46:38;;;;;;;5.07;3.20;;;;;;;19.88;73.76;101209.09;5055622;28;20021;-61
2023/08/05 08:49:03;;;;;;;6.43;3.50;;;;;;;19.94;72.64;101206.25;5055393;28;20347;-61
2023/08/05 08:51:29;;;;;;;5.88;3.53;;;;;;;20.12;72.84;101191.53;5055441;28;20041;-62
2023/08/05 08:53:55;;;;;;;5.65;3.22;;;;;;;20.44;71.52;101185.41;5037560;28;20025;-61
2023/08/05 08:56:21;;;;;;;5.07;3.00;;;;;;;20.85;70.86;101196.03;5055491;28;20029;-61
2023/08/05 08:58:46;;;;;;;5.28;2.70;;;;;;;21.10;66.05;101198.97;5055411;28;20372;-60
2023/08/05 09:01:16;;;;;;;5.78;2.78;;;;;;;21.05;66.03;101192.84;5055512;28;20083;-62
2023/08/05 09:03:43;;;;;;;5.55;2.70;;;;;;;20.95;66.35;101192.22;5055293;28;20059;-61
2023/08/05 09:06:09;;;;;;;5.28;2.70;;;;;;;20.93;66.88;101184.16;5055125;28;20028;-62
2023/08/05 09:08:35;;;;;;;4.93;2.75;;;;;;;20.94;66.95;101182.38;5055261;28;20029;-61
2023/08/05 09:11:01;;;;;;;3.55;2.50;;;;;;;20.90;66.82;101180.72;5055422;28;20121;-60
2023/08/05 09:13:26;;;;;;;5.15;2.80;;;;;;;20.77;65.80;101172.09;5055001;28;20451;-61
2023/08/05 09:15:53;;;;;;;6.28;3.00;;;;;;;20.66;67.06;101175.03;5055204;28;20079;-61
2023/08/05 09:18:19;;;;;;;4.75;3.00;;;;;;;20.48;68.21;101160.28;5055013;28;20029;-60
2023/08/05 09:20:44;;;;;;;6.00;2.92;;;;;;;20.60;69.46;101161.78;5054602;28;20044;-61
2023/08/05 09:23:11;;;;;;;5.90;2.83;;;;;;;20.61;69.39;101151.94;5054281;28;20025;-61
2023/08/05 09:25:40;;;;;;;4.70;2.78;;;;;;;20.53;68.66;101151.25;5055038;28;20045;-62
2023/08/05 09:28:06;;;;;;;5.20;2.90;;;;;;;20.44;68.88;101147.81;5054871;28;20336;-62
2023/08/05 09:30:35;;;;;;;4.57;3.00;;;;;;;20.42;69.58;101138.91;5054782;28;20048;-61
2023/08/05 09:33:01;;;;;;;7.13;2.88;;;;;;;20.43;70.59;101127.28;5054561;28;20110;-61
2023/08/05 09:35:26;;;;;;;6.18;3.05;;;;;;;20.42;68.55;101128.19;5054532;28;20390;-61
2023/08/05 09:37:53;;;;;;;5.15;2.60;;;;;;;20.48;68.97;101111.97;5036736;28;20017;-60
2023/08/05 09:40:24;;;;;;;4.53;2.80;;;;;;;20.64;69.79;101122.28;5054593;28;20029;-61
2023/08/05 09:42:51;;;;;;;5.03;2.80;;;;;;;20.87;68.47;101116.31;5054593;28;20021;-61
2023/08/05 09:45:18;;;;;;;5.25;2.78;;;;;;;20.92;68.58;101111.69;5054623;28;20382;-61
2023/08/05 09:47:49;;;;;;;4.90;3.47;;;;;;;20.83;67.66;101107.44;5054589;28;20021;-61
2023/08/05 09:50:16;;;;;;;6.03;3.00;;;;;;;20.63;69.62;101115.16;5054147;28;20067;-61
2023/08/05 09:52:42;;;;;;;7.13;3.40;;;;;;;20.36;68.89;101124.78;5054690;28;20036;-60
2023/08/05 09:55:16;;;;;;;5.90;3.15;;;;;;;20.25;69.82;101101.75;5054390;28;20060;-61
2023/08/05 09:57:42;;;;;;;6.25;3.45;;;;;;;20.20;69.26;101101.00;5053016;28;20397;-60
2023/08/05 10:00:11;;;;;;;6.32;3.20;;;;;;;20.10;69.09;101102.16;5054413;28;20032;-61
2023/08/05 10:02:38;;;;;;;5.57;3.50;;;;;;;19.90;70.00;101099.06;5054182;28;20360;-61
2023/08/05 10:05:05;;;;;;;5.63;3.60;;;;;;;19.95;71.87;101091.78;5054112;28;20161;-61
2023/08/05 10:07:31;;;;;;;5.80;4.00;;;;;;;19.86;71.74;101084.84;5054086;28;20534;-61
2023/08/05 10:09:57;;;;;;;5.38;3.75;;;;;;;19.82;71.19;101091.19;5052930;28;20100;-61
2023/08/05 10:12:29;;;;;;;6.75;3.55;;;;;;;19.62;70.72;101080.97;5054145;28;20048;-61
2023/08/05 10:14:56;;;;;;;5.63;3.60;;;;;;;19.65;73.28;101086.22;5053758;28;20033;-61
2023/08/05 10:17:22;;;;;;;5.43;3.65;;;;;;;19.68;73.72;101077.25;5054282;28;20037;-61
2023/08/05 10:19:50;;;;;;;8.55;3.80;;;;;;;19.82;73.36;101077.78;5053683;28;20028;-61
2023/08/05 10:22:22;;;;;;;5.63;3.40;;;;;;;19.85;72.70;101058.06;5054246;28;20359;-61
2023/08/05 10:24:58;;;;;;;7.85;4.05;;;;;;;19.89;73.50;101067.81;5053723;28;20425;-61
2023/08/05 10:27:37;;;;;;;6.40;3.70;;;;;;;19.97;73.28;101055.09;5053968;28;20123;-61
2023/08/05 10:30:07;;;;;;;5.65;4.25;;;;;;;19.83;73.45;101054.53;5053732;28;20075;-61
2023/08/05 10:32:33;;;;;;;8.90;4.43;;;;;;;19.86;73.51;101049.09;5053832;28;20025;-61
2023/08/05 10:35:40;;;;;;;8.98;4.55;;;;;;;19.81;73.09;101057.25;5053796;28;20040;-60
2023/08/05 10:38:19;;;;;;;6.93;4.60;;;;;;;19.83;74.39;101054.53;4973007;28;20037;-60
2023/08/05 10:41:03;;;;;;;6.82;4.50;;;;;;;19.94;74.44;101050.69;5047207;28;20116;-61
2023/08/05 10:43:31;;;;;;;7.55;4.60;;;;;;;19.92;74.06;101057.03;5053335;28;20479;-61
2023/08/05 10:46:14;;;;;;;8.43;5.10;;;;;;;19.83;73.61;101050.09;5053328;28;20032;-61
2023/08/05 10:48:44;;;;;;;7.72;4.63;;;;;;;19.76;73.89;101060.06;5053313;28;20045;-61
2023/08/05 10:51:24;;;;;;;9.55;5.07;;;;;;;19.79;73.82;101058.25;5053203;28;20036;-60
2023/08/05 10:53:55;;;;;;;7.30;4.85;;;;;;;19.81;73.02;101062.63;5053300;28;20066;-62
2023/08/05 10:56:29;;;;;;;8.57;4.78;;;;;;;19.95;73.06;101049.75;5053174;28;20478;-61
2023/08/05 10:58:54;;;;;;;6.85;4.25;;;;;;;20.10;72.20;101053.88;5053298;28;20057;-62
2023/08/05 11:01:20;;;;;;;6.68;4.22;;;;;;;20.14;70.93;101052.00;5053294;28;20521;-61
2023/08/05 11:03:46;;;;;;;8.52;4.30;;;;;;;20.17;70.38;101044.75;5053187;28;20025;-60
2023/08/05 11:06:13;;;;;;;5.20;3.90;;;;;;;20.35;69.69;101037.16;5053212;28;20033;-61
2023/08/05 11:08:40;;;;;;;6.47;4.18;;;;;;;20.47;68.99;101026.97;5053093;28;20471;-60
2023/08/05 11:11:13;;;;;;;6.25;4.05;;;;;;;20.73;67.48;101037.00;5051832;28;20119;-61
2023/08/05 11:13:40;;;;;;;8.23;4.00;;;;;;;20.86;67.63;101037.53;5053007;28;20032;-62
2023/08/05 11:16:07;;;;;;;5.00;3.45;;;;;;;20.92;66.10;101031.97;5053162;28;20083;-61
2023/08/05 11:18:33;;;;;;;6.60;4.28;;;;;;;20.84;66.44;101025.94;5053339;28;20036;-61